Time;durP1;ratioP1;P1;durP2;ratioP2;P2;SDS_P1;SDS_P2;PMS_P1;PMS_P2;Temp;Humidity;BMP_temperature;BMP_pressure;BME280_temperature;BME280_humidity;BME280_pressure;Samples;Min_cycle;Max_cycle;Signal;HPM_P1;HPM_P2
2023/12/29 00:01:14;;;;;;;35.80;19.30;;;;;;;2.32;70.44;99921.13;5017326;28;20384;-94
2023/12/29 00:03:39;;;;;;;34.13;17.60;;;;;;;2.60;70.27;99970.69;5017402;28;20026;-94
2023/12/29 00:06:05;;;;;;;30.92;17.85;;;;;;;2.37;70.43;99942.63;5017111;28;20029;-93
2023/12/29 00:08:31;;;;;;;31.58;18.25;;;;;;;2.54;70.79;99974.97;5017588;28;20026;-94
2023/12/29 00:10:56;;;;;;;36.85;19.75;;;;;;;2.46;70.46;99953.06;5018472;28;20035;-93
2023/12/29 00:13:25;;;;;;;38.38;17.85;;;;;;;2.48;70.55;99937.72;5017378;28;20025;-93
2023/12/29 00:15:54;;;;;;;33.50;17.35;;;;;;;2.46;70.16;99959.19;5018362;28;20045;-95
2023/12/29 00:18:19;;;;;;;34.60;17.50;;;;;;;2.30;70.61;99931.13;5018937;28;20403;-93
2023/12/29 00:20:45;;;;;;;33.85;16.88;;;;;;;2.60;70.49;99982.13;5020483;28;20010;-94
2023/12/29 00:23:11;;;;;;;33.47;16.83;;;;;;;2.36;70.80;99956.91;5021105;28;20025;-94
2023/12/29 00:25:38;;;;;;;40.83;16.80;;;;;;;2.40;70.06;99960.00;5020799;28;20538;-95
2023/12/29 00:28:04;;;;;;;28.80;16.70;;;;;;;2.47;70.25;99981.25;5021462;28;20029;-95
2023/12/29 00:30:30;;;;;;;35.38;18.10;;;;;;;2.43;70.44;99983.53;5021275;28;20037;-93
2023/12/29 00:32:56;;;;;;;31.02;17.20;;;;;;;2.19;70.24;99950.31;5020379;28;20610;-94
2023/12/29 00:35:21;;;;;;;38.20;18.27;;;;;;;2.10;70.65;99943.56;5021290;28;20396;-94
2023/12/29 00:37:47;;;;;;;29.92;16.55;;;;;;;2.34;70.74;99992.69;5020348;28;20056;-93
2023/12/29 00:40:12;;;;;;;32.08;16.10;;;;;;;2.06;70.59;99944.97;5020111;28;20092;-93
2023/12/29 00:42:38;;;;;;;30.08;16.85;;;;;;;2.17;70.99;99966.47;5020208;28;20036;-93
2023/12/29 00:45:04;;;;;;;29.17;16.48;;;;;;;2.29;70.37;99976.53;5020875;28;20030;-94
2023/12/29 00:47:30;;;;;;;30.58;16.45;;;;;;;2.18;70.52;99970.78;5021732;28;20495;-95
2023/12/29 00:49:56;;;;;;;61.65;35.47;;;;;;;2.29;70.68;99982.66;5020645;28;20028;-93
2023/12/29 00:52:21;;;;;;;61.08;38.55;;;;;;;2.30;70.33;99978.16;5020007;28;20051;-93
2023/12/29 00:54:47;;;;;;;52.05;31.42;;;;;;;2.28;70.74;99975.69;5020227;28;20030;-94
2023/12/29 00:57:12;;;;;;;35.00;21.33;;;;;;;2.22;70.84;99995.06;5020215;28;20033;-94
2023/12/29 00:59:41;;;;;;;34.53;18.38;;;;;;;2.07;70.72;99975.81;5020194;28;20025;-94
2023/12/29 01:02:06;;;;;;;35.45;19.45;;;;;;;2.11;70.54;99967.25;5020991;28;20105;-92
2023/12/29 01:04:32;;;;;;;31.10;17.70;;;;;;;2.05;70.39;99944.13;5019967;28;20024;-93
2023/12/29 01:06:58;;;;;;;29.90;16.75;;;;;;;2.06;70.47;99967.03;5020865;28;20476;-92
2023/12/29 01:09:23;;;;;;;29.17;16.15;;;;;;;1.92;70.97;99955.53;5019987;28;20018;-94
2023/12/29 01:11:49;;;;;;;32.38;17.42;;;;;;;2.04;70.63;99973.56;5020288;28;20071;-93
2023/12/29 01:14:14;;;;;;;38.90;17.25;;;;;;;1.84;70.84;99936.28;5020593;28;20030;-93
2023/12/29 01:16:41;;;;;;;34.08;16.88;;;;;;;2.01;70.38;99957.00;5019702;28;20018;-93
2023/12/29 01:19:07;;;;;;;28.35;16.17;;;;;;;1.90;70.69;99933.66;5019967;28;20025;-92
2023/12/29 01:21:33;;;;;;;30.15;17.65;;;;;;;2.02;70.68;99965.78;5021266;28;20122;-94
2023/12/29 01:24:04;;;;;;;32.15;16.70;;;;;;;1.81;70.47;99930.38;5003949;28;20056;-93
2023/12/29 01:26:30;;;;;;;29.00;16.80;;;;;;;1.94;70.94;99934.91;5004781;28;20082;-93
2023/12/29 01:28:55;;;;;;;33.50;16.58;;;;;;;1.98;70.61;99933.50;4985906;28;20116;-94
2023/12/29 01:31:22;;;;;;;34.35;16.92;;;;;;;1.96;70.43;99954.13;4987306;28;20063;-93
2023/12/29 01:33:47;;;;;;;30.10;17.40;;;;;;;1.99;71.00;99969.69;5003161;28;20115;-93
2023/12/29 01:36:19;;;;;;;42.30;18.83;;;;;;;1.78;71.02;99936.06;4986826;28;20456;-93
2023/12/29 01:38:45;;;;;;;37.50;17.80;;;;;;;1.92;70.71;99949.41;5003327;28;20058;-93
2023/12/29 01:41:10;;;;;;;34.65;17.83;;;;;;;2.01;71.31;99978.25;5003446;28;20090;-93
2023/12/29 01:43:36;;;;;;;28.73;16.70;;;;;;;1.86;70.35;99972.25;5003504;28;20108;-94
2023/12/29 01:46:01;;;;;;;27.83;17.85;;;;;;;1.72;71.28;99944.84;4987454;28;20112;-95
2023/12/29 01:48:28;;;;;;;36.53;17.75;;;;;;;1.65;71.18;99927.22;5002995;28;20022;-95
2023/12/29 01:50:53;;;;;;;33.83;16.23;;;;;;;1.65;70.49;99937.84;5018473;28;20028;-94
2023/12/29 01:53:19;;;;;;;28.85;16.65;;;;;;;1.63;70.97;99931.91;4986875;28;20026;-93
2023/12/29 01:55:44;;;;;;;27.48;15.82;;;;;;;1.48;70.70;99914.28;5002600;28;20033;-93
2023/12/29 01:58:10;;;;;;;31.05;16.13;;;;;;;1.53;70.63;99935.72;5003277;28;20084;-94
2023/12/29 02:00:35;;;;;;;24.60;14.73;;;;;;;1.38;71.61;99935.03;4986809;28;20033;-91
2023/12/29 02:03:01;;;;;;;31.70;16.17;;;;;;;1.39;71.42;99934.84;5003037;28;20407;-96
2023/12/29 02:05:26;;;;;;;28.02;15.20;;;;;;;1.33;71.39;99922.34;5003355;28;20450;-95
2023/12/29 02:07:53;;;;;;;28.00;16.17;;;;;;;1.52;71.03;99934.09;4986074;28;20603;-93
2023/12/29 02:10:18;;;;;;;30.85;16.52;;;;;;;1.68;70.83;99958.66;4987365;28;20026;-92
2023/12/29 02:12:45;;;;;;;32.08;17.02;;;;;;;1.45;71.31;99930.56;5002927;28;20467;-94
2023/12/29 02:15:11;;;;;;;27.35;16.15;;;;;;;1.48;71.30;99945.31;4986989;28;20031;-92
2023/12/29 02:18:03;;;;;;;31.33;16.05;;;;;;;1.39;71.00;99918.06;4987589;28;20017;-93
2023/12/29 02:20:29;;;;;;;26.67;14.82;;;;;;;1.54;70.63;99939.22;5001409;28;20029;-92
2023/12/29 02:22:55;;;;;;;27.45;15.82;;;;;;;1.41;71.46;99924.84;5001850;28;20030;-93
2023/12/29 02:25:23;;;;;;;27.05;15.07;;;;;;;1.51;70.85;99942.25;5002027;28;20045;-93
2023/12/29 02:28:13;;;;;;;37.83;17.13;;;;;;;1.46;71.60;99949.97;5003180;28;20026;-92
2023/12/29 02:30:45;;;;;;;29.75;15.30;;;;;;;1.16;70.81;99903.28;5018558;28;20021;-93
2023/12/29 02:33:14;;;;;;;30.83;16.10;;;;;;;1.26;71.91;99923.31;5002615;28;20052;-92
2023/12/29 02:35:42;;;;;;;36.70;16.05;;;;;;;1.26;71.40;99921.47;5002513;28;20025;-94
2023/12/29 02:38:07;;;;;;;27.58;14.65;;;;;;;1.32;71.37;99933.97;4986898;28;20045;-95
2023/12/29 02:40:33;;;;;;;26.75;15.90;;;;;;;1.35;70.77;99916.81;5001423;28;20033;-93
2023/12/29 02:42:58;;;;;;;34.42;15.68;;;;;;;1.34;70.97;99923.97;5002265;28;20028;-94
2023/12/29 02:45:24;;;;;;;29.15;15.20;;;;;;;1.26;71.57;99908.22;4984982;28;20033;-94
2023/12/29 02:47:50;;;;;;;33.22;15.75;;;;;;;1.38;71.74;99941.16;5001987;28;20048;-95
2023/12/29 02:50:16;;;;;;;30.98;16.25;;;;;;;1.25;71.20;99911.88;5002252;28;20025;-95
2023/12/29 02:52:41;;;;;;;33.42;16.00;;;;;;;1.44;71.34;99942.22;4985326;28;20057;-94
2023/12/29 02:55:07;;;;;;;30.08;16.15;;;;;;;1.20;71.47;99896.56;5002934;28;20021;-95
2023/12/29 02:57:33;;;;;;;34.42;17.02;;;;;;;1.39;71.91;99945.44;4987721;28;20468;-94
2023/12/29 03:00:00;;;;;;;31.83;16.52;;;;;;;1.36;72.11;99947.66;4985202;28;20486;-93
2023/12/29 03:02:25;;;;;;;32.45;15.57;;;;;;;1.27;71.51;99920.47;5002006;28;20039;-93
2023/12/29 03:04:51;;;;;;;35.08;16.08;;;;;;;1.28;71.38;99924.75;5001885;28;20064;-95
2023/12/29 03:07:16;;;;;;;34.13;16.80;;;;;;;1.15;71.18;99914.88;5001858;28;20080;-94
2023/12/29 03:09:42;;;;;;;27.17;16.50;;;;;;;1.16;71.17;99910.38;5001660;28;20028;-93
2023/12/29 03:12:08;;;;;;;33.17;17.88;;;;;;;1.38;71.63;99941.16;5001499;28;20103;-93
2023/12/29 03:14:33;;;;;;;44.50;20.55;;;;;;;1.11;71.08;99902.19;5002632;28;20030;-94
2023/12/29 03:16:59;;;;;;;39.08;19.90;;;;;;;1.36;71.22;99937.06;5001307;28;20029;-93
2023/12/29 03:19:24;;;;;;;44.95;20.38;;;;;;;1.12;71.43;99915.28;4985513;28;20053;-94
2023/12/29 03:21:50;;;;;;;40.95;19.92;;;;;;;1.02;71.87;99896.22;4985259;28;20036;-93
2023/12/29 03:24:16;;;;;;;47.60;21.02;;;;;;;1.16;72.30;99932.44;4985325;28;20037;-93
2023/12/29 03:26:42;;;;;;;35.63;18.90;;;;;;;1.10;72.54;99919.97;5002810;28;20033;-93
2023/12/29 03:29:07;;;;;;;31.10;17.88;;;;;;;1.14;72.74;99912.41;5001205;28;20037;-93
2023/12/29 03:31:33;;;;;;;45.20;19.10;;;;;;;1.16;72.03;99919.19;5001362;28;20021;-93
2023/12/29 03:33:58;;;;;;;37.25;19.95;;;;;;;1.30;72.88;99938.63;4986097;28;20060;-94
2023/12/29 03:36:24;;;;;;;44.65;20.45;;;;;;;1.07;72.40;99912.38;5001293;28;20037;-92
2023/12/29 03:38:49;;;;;;;36.42;19.13;;;;;;;1.11;72.40;99912.81;5000992;28;20032;-92
2023/12/29 03:41:15;;;;;;;36.55;17.52;;;;;;;1.32;72.29;99911.94;5001077;28;20021;-93
2023/12/29 03:43:40;;;;;;;43.38;21.60;;;;;;;1.40;71.65;99931.16;4985471;28;20506;-94
2023/12/29 03:46:19;;;;;;;45.38;21.05;;;;;;;1.27;71.84;99919.66;5001896;28;20029;-93
2023/12/29 03:48:44;;;;;;;51.58;21.17;;;;;;;1.39;71.37;99923.38;4985895;28;20594;-93
2023/12/29 03:51:10;;;;;;;34.40;18.08;;;;;;;1.33;71.14;99921.50;5001743;28;20075;-94
2023/12/29 03:53:35;;;;;;;41.90;19.80;;;;;;;1.29;71.38;99920.28;5005464;28;20056;-94
2023/12/29 03:56:08;;;;;;;37.42;19.55;;;;;;;1.19;72.09;99902.88;4988824;28;20048;-94
2023/12/29 03:58:34;;;;;;;36.55;18.38;;;;;;;1.41;71.26;99940.78;4989625;28;20033;-94
2023/12/29 04:01:00;;;;;;;35.30;18.63;;;;;;;1.23;71.46;99919.22;5005447;28;20105;-94
2023/12/29 04:03:25;;;;;;;31.20;17.00;;;;;;;1.36;71.14;99937.88;5005566;28;20025;-95
2023/12/29 04:05:51;;;;;;;40.35;18.40;;;;;;;1.28;71.07;99930.06;5004787;28;20079;-95
2023/12/29 04:08:16;;;;;;;33.92;16.35;;;;;;;1.16;71.46;99919.19;5005700;28;20625;-94
2023/12/29 04:10:42;;;;;;;29.45;15.95;;;;;;;1.09;71.29;99918.31;5012855;28;20028;-94
2023/12/29 04:13:07;;;;;;;42.47;17.15;;;;;;;1.04;71.55;99911.94;5027780;28;20032;-93
2023/12/29 04:15:33;;;;;;;34.20;17.42;;;;;;;1.13;71.00;99911.59;5033796;28;20497;-92
2023/12/29 04:17:58;;;;;;;32.75;17.27;;;;;;;1.26;71.43;99929.44;5004912;28;20396;-94
2023/12/29 04:20:24;;;;;;;36.92;18.42;;;;;;;1.24;71.13;99912.88;5004809;28;20029;-93
2023/12/29 04:22:50;;;;;;;38.85;20.23;;;;;;;1.30;71.53;99900.69;5004593;28;20044;-92
2023/12/29 04:25:16;;;;;;;46.85;19.50;;;;;;;1.46;71.50;99920.78;5001303;28;20061;-93
2023/12/29 04:27:41;;;;;;;33.47;16.55;;;;;;;1.38;71.27;99924.41;5001996;28;20030;-94
2023/12/29 04:30:07;;;;;;;30.75;17.13;;;;;;;1.23;70.98;99919.22;4984794;28;20354;-93
2023/12/29 04:32:34;;;;;;;37.25;16.58;;;;;;;1.29;70.46;99933.56;5001012;28;20653;-93
2023/12/29 04:35:00;;;;;;;30.52;16.30;;;;;;;1.17;70.96;99923.47;4984562;28;20129;-94
2023/12/29 04:37:25;;;;;;;39.38;16.73;;;;;;;1.11;71.12;99924.22;5001492;28;20057;-93
2023/12/29 04:39:51;;;;;;;25.45;15.45;;;;;;;1.30;70.43;99940.47;5001316;28;20026;-94
2023/12/29 04:42:19;;;;;;;31.15;16.10;;;;;;;1.20;70.86;99915.13;4984234;28;20038;-93
2023/12/29 04:44:45;;;;;;;29.27;15.30;;;;;;;1.03;71.27;99927.03;5001803;28;20018;-93
2023/12/29 04:47:10;;;;;;;28.77;16.50;;;;;;;1.12;71.41;99941.81;4985188;28;20029;-93
2023/12/29 04:49:36;;;;;;;35.45;16.77;;;;;;;0.89;71.50;99925.28;4982051;28;20093;-93
2023/12/29 04:52:02;;;;;;;28.38;15.35;;;;;;;0.93;71.96;99922.03;4997396;28;20014;-94
2023/12/29 04:54:28;;;;;;;30.35;17.17;;;;;;;0.98;71.85;99932.09;4997871;28;20077;-93
2023/12/29 04:56:56;;;;;;;34.35;17.13;;;;;;;0.85;71.85;99924.88;4997649;28;20034;-94
2023/12/29 04:59:21;;;;;;;38.10;17.67;;;;;;;0.86;71.63;99934.44;5009768;28;20050;-93
2023/12/29 05:01:47;;;;;;;36.97;17.75;;;;;;;0.83;71.67;99929.53;5000149;28;20032;-94
2023/12/29 05:04:14;;;;;;;36.92;19.42;;;;;;;1.03;71.29;99958.84;5017433;28;20037;-94
2023/12/29 05:06:43;;;;;;;28.40;15.77;;;;;;;0.80;71.47;99921.94;5001013;28;20095;-93
2023/12/29 05:09:09;;;;;;;33.30;16.45;;;;;;;0.86;71.30;99946.88;5018696;28;20032;-95
2023/12/29 05:11:34;;;;;;;34.35;16.83;;;;;;;0.83;71.16;99949.91;4985567;28;20029;-96
2023/12/29 05:14:00;;;;;;;29.63;17.45;;;;;;;0.70;71.29;99940.00;5001803;28;20037;-95
2023/12/29 05:16:26;;;;;;;47.15;22.08;;;;;;;0.67;71.53;99929.78;5034616;28;20029;-95
2023/12/29 05:18:53;;;;;;;33.45;17.73;;;;;;;0.88;71.64;99964.22;5019741;28;20036;-95
2023/12/29 05:21:19;;;;;;;38.40;17.95;;;;;;;0.74;71.71;99941.25;4988544;28;20029;-96
2023/12/29 05:23:45;;;;;;;33.70;18.23;;;;;;;0.82;71.17;99935.84;5001853;28;20140;-95
2023/12/29 05:26:11;;;;;;;42.38;20.13;;;;;;;0.88;71.84;99947.50;5001045;28;20484;-96
2023/12/29 05:28:36;;;;;;;38.10;19.85;;;;;;;0.67;71.54;99921.84;5001624;28;20029;-96
2023/12/29 05:31:05;;;;;;;33.33;17.58;;;;;;;0.82;71.28;99941.13;5001874;28;20033;-96
2023/12/29 05:33:31;;;;;;;34.00;18.02;;;;;;;0.85;71.59;99938.13;5001793;28;20029;-96
2023/12/29 05:35:57;;;;;;;30.58;17.55;;;;;;;0.86;71.51;99936.28;5001195;28;20036;-95
2023/12/29 05:38:22;;;;;;;34.60;16.77;;;;;;;1.16;71.44;99963.44;5001910;28;20472;-93
2023/12/29 05:40:48;;;;;;;32.88;17.80;;;;;;;1.18;71.49;99943.69;5002134;28;20037;-93
2023/12/29 05:43:15;;;;;;;26.27;14.20;;;;;;;1.37;70.93;99966.06;5002374;28;20065;-95
2023/12/29 05:45:40;;;;;;;23.20;12.73;;;;;;;1.42;70.45;99963.63;4985048;28;20030;-94
2023/12/29 05:48:06;;;;;;;32.25;15.13;;;;;;;1.38;70.49;99950.94;5001254;28;20069;-95
2023/12/29 05:50:32;;;;;;;32.88;15.88;;;;;;;1.44;69.81;99962.63;5000824;28;20029;-95
2023/12/29 05:53:00;;;;;;;56.72;21.35;;;;;;;1.34;69.62;99949.69;5001532;28;20041;-96
2023/12/29 05:55:26;;;;;;;80.72;52.53;;;;;;;1.26;69.84;99952.50;5003591;28;20029;-95
2023/12/29 05:57:51;;;;;;;39.25;18.58;;;;;;;1.35;69.56;99977.84;5002142;28;20500;-95
2023/12/29 06:00:17;;;;;;;44.28;18.08;;;;;;;1.18;69.99;99953.44;5001391;28;20026;-95
2023/12/29 06:02:43;;;;;;;53.80;20.73;;;;;;;1.09;69.91;99944.00;5012539;28;20029;-96
2023/12/29 06:05:10;;;;;;;50.80;18.58;;;;;;;0.88;69.87;99940.38;5004191;28;20033;-96
2023/12/29 06:07:36;;;;;;;44.33;19.27;;;;;;;0.95;70.46;99948.38;5001904;28;20042;-95
2023/12/29 06:10:02;;;;;;;80.28;26.10;;;;;;;0.94;70.43;99946.75;5004061;28;20018;-96
2023/12/29 06:12:29;;;;;;;49.25;21.80;;;;;;;0.90;70.11;99935.69;5001582;28;20021;-95
2023/12/29 06:14:58;;;;;;;56.67;23.23;;;;;;;1.02;70.50;99943.97;4988159;28;20116;-95
2023/12/29 06:17:25;;;;;;;43.30;21.48;;;;;;;1.07;69.41;99957.44;5000812;28;20038;-96
2023/12/29 06:19:54;;;;;;;64.38;23.73;;;;;;;1.06;69.54;99947.88;4985090;28;20488;-96
2023/12/29 06:22:20;;;;;;;48.00;24.98;;;;;;;1.19;69.76;99960.41;5001500;28;20024;-93
2023/12/29 06:24:48;;;;;;;38.28;21.95;;;;;;;1.26;69.28;99977.19;4987540;28;20480;-96
2023/12/29 06:27:14;;;;;;;33.17;17.55;;;;;;;1.00;70.04;99938.84;4987811;28;20056;-93
2023/12/29 06:29:45;;;;;;;38.10;18.15;;;;;;;0.93;71.28;99967.13;4986141;28;20108;-94
2023/12/29 06:32:24;;;;;;;40.43;18.27;;;;;;;0.67;71.14;99956.28;4976728;28;20101;-95
2023/12/29 06:34:50;;;;;;;35.78;17.55;;;;;;;0.78;70.46;99946.00;5011749;28;20269;-95
2023/12/29 06:37:16;;;;;;;39.70;19.67;;;;;;;0.98;70.67;99969.22;4992935;28;20030;-96
2023/12/29 06:39:44;;;;;;;63.03;25.83;;;;;;;1.02;70.80;99957.22;4970833;28;20112;-94
2023/12/29 06:42:15;;;;;;;66.30;20.30;;;;;;;1.07;70.63;99965.41;4989158;28;20038;-95
2023/12/29 06:44:40;;;;;;;112.68;21.63;;;;;;;1.07;70.79;99954.78;4986732;28;20026;-94
2023/12/29 06:47:06;;;;;;;37.90;20.92;;;;;;;1.28;70.55;99958.41;4969460;28;20136;-95
2023/12/29 06:49:34;;;;;;;33.80;18.58;;;;;;;1.39;69.76;99956.06;4987614;28;20053;-95
2023/12/29 06:52:01;;;;;;;37.65;18.67;;;;;;;1.38;69.61;99962.38;4970060;28;20120;-94
2023/12/29 06:54:30;;;;;;;35.88;19.13;;;;;;;1.48;69.07;99958.56;4985103;28;20097;-95
2023/12/29 06:56:55;;;;;;;37.80;20.20;;;;;;;1.65;69.20;99983.78;4972082;28;20030;-94
2023/12/29 06:59:22;;;;;;;36.08;19.75;;;;;;;1.59;68.44;99950.06;4986638;28;20030;-96
2023/12/29 07:02:15;;;;;;;34.78;18.52;;;;;;;1.89;68.65;99986.97;5009570;28;20089;-96
2023/12/29 07:04:44;;;;;;;40.45;20.40;;;;;;;1.93;67.62;99978.44;5019949;28;20033;-92
2023/12/29 07:07:50;;;;;;;36.00;20.75;;;;;;;2.03;67.76;99991.31;5003587;28;20165;-94
2023/12/29 07:10:16;;;;;;;41.55;20.95;;;;;;;2.17;67.40;99995.69;4999185;28;20038;-95
2023/12/29 07:12:53;;;;;;;37.33;20.73;;;;;;;2.19;67.90;99966.25;5002147;28;20124;-95
2023/12/29 07:15:23;;;;;;;41.88;21.05;;;;;;;2.25;67.45;99956.69;5018769;28;20545;-95
2023/12/29 07:17:51;;;;;;;38.80;21.27;;;;;;;2.37;67.05;99971.84;5005797;28;20057;-94
2023/12/29 07:20:22;;;;;;;42.47;24.42;;;;;;;2.35;67.28;99957.94;5001719;28;20035;-94
2023/12/29 07:22:48;;;;;;;40.78;21.48;;;;;;;2.31;66.85;99955.91;4981467;28;20034;-93
2023/12/29 07:25:14;;;;;;;45.72;22.80;;;;;;;2.59;65.63;99961.06;4998047;28;20054;-95
2023/12/29 07:27:39;;;;;;;46.60;23.10;;;;;;;2.65;65.61;99970.06;5005269;28;20036;-95
2023/12/29 07:30:05;;;;;;;33.97;20.52;;;;;;;2.58;65.52;99967.41;4991005;28;20033;-96
2023/12/29 07:32:31;;;;;;;36.00;20.88;;;;;;;2.52;65.38;99955.72;5004604;28;20480;-96
2023/12/29 07:34:57;;;;;;;46.80;22.65;;;;;;;2.66;66.16;99971.69;5008914;28;20038;-95
2023/12/29 07:37:23;;;;;;;35.50;20.98;;;;;;;2.66;66.24;99979.66;5005878;28;20025;-94
2023/12/29 07:39:55;;;;;;;38.67;22.40;;;;;;;2.60;66.13;99958.19;5006508;28;20030;-96
2023/12/29 07:42:39;;;;;;;40.40;23.70;;;;;;;2.91;65.78;99974.63;4969858;28;20110;-95
2023/12/29 07:45:07;;;;;;;49.10;23.00;;;;;;;3.13;65.27;99973.38;4952424;28;20039;-95
2023/12/29 07:47:36;;;;;;;45.40;22.35;;;;;;;3.11;65.17;99961.31;4969422;28;20101;-94
2023/12/29 07:50:09;;;;;;;43.40;22.10;;;;;;;3.17;64.92;99952.50;4955853;28;20084;-95
2023/12/29 07:52:42;;;;;;;42.00;21.95;;;;;;;3.23;64.58;99971.13;4954316;29;20074;-96
2023/12/29 07:55:40;;;;;;;40.33;21.83;;;;;;;3.22;65.11;99960.72;4954173;29;20049;-96
2023/12/29 07:58:10;;;;;;;39.38;21.98;;;;;;;3.31;65.21;99959.47;4970262;29;20047;-96
2023/12/29 08:00:38;;;;;;;39.60;22.73;;;;;;;3.41;64.97;99962.53;4935108;29;20079;-95
2023/12/29 08:03:07;;;;;;;43.50;23.02;;;;;;;3.53;64.79;99953.88;4949188;29;20047;-95
2023/12/29 08:05:33;;;;;;;40.55;22.10;;;;;;;3.80;63.80;99965.31;4948651;29;20027;-95
2023/12/29 08:08:25;;;;;;;41.05;22.25;;;;;;;3.94;64.00;99984.72;4933149;29;20099;-95
2023/12/29 08:10:51;;;;;;;41.80;21.85;;;;;;;4.01;63.18;99962.38;4961057;29;20027;-94
2023/12/29 08:13:51;;;;;;;46.47;22.40;;;;;;;4.14;62.33;99950.84;4954315;28;20042;-96
2023/12/29 08:16:24;;;;;;;48.15;22.40;;;;;;;4.33;62.15;99957.09;4989873;28;20038;-96
2023/12/29 08:18:50;;;;;;;35.25;21.75;;;;;;;4.49;61.76;99949.66;5005885;28;20034;-89
2023/12/29 08:21:18;;;;;;;37.75;22.48;;;;;;;4.91;60.65;99984.66;4998494;28;20030;-91
2023/12/29 08:23:43;;;;;;;40.70;22.55;;;;;;;4.96;60.26;99953.63;5000601;28;20030;-91
2023/12/29 08:26:10;;;;;;;111.65;53.70;;;;;;;5.37;59.25;99986.16;5013122;28;20044;-90
2023/12/29 08:28:35;;;;;;;52.83;26.38;;;;;;;5.38;59.09;99953.88;4983778;28;20026;-90
2023/12/29 08:31:01;;;;;;;41.13;23.65;;;;;;;6.38;57.17;99984.06;4981249;28;20033;-88
2023/12/29 08:33:26;;;;;;;41.28;23.65;;;;;;;6.97;55.34;99968.19;5002619;28;20385;-89
2023/12/29 08:36:00;;;;;;;45.22;24.58;;;;;;;7.08;55.06;99972.78;5009837;28;20033;-93
2023/12/29 08:38:28;;;;;;;39.75;22.40;;;;;;;7.15;54.32;99978.81;5001106;28;20132;-91
2023/12/29 08:40:54;;;;;;;48.85;27.15;;;;;;;7.02;55.26;99957.63;4984247;28;20061;-91
2023/12/29 08:43:21;;;;;;;45.00;23.48;;;;;;;7.20;54.94;99980.81;5000088;28;20036;-91
2023/12/29 08:45:49;;;;;;;51.15;26.50;;;;;;;7.20;54.58;99976.28;4985484;28;20053;-90
2023/12/29 08:48:17;;;;;;;38.83;22.25;;;;;;;7.13;54.13;99959.50;4988778;28;20049;-92
2023/12/29 08:50:43;;;;;;;41.38;24.08;;;;;;;7.29;53.90;99982.09;4985121;28;20025;-92
2023/12/29 08:53:09;;;;;;;42.33;23.50;;;;;;;7.24;53.79;99961.38;4984016;28;20041;-91
2023/12/29 08:55:34;;;;;;;49.90;23.38;;;;;;;7.29;53.96;99956.13;4986640;28;20029;-91
2023/12/29 08:58:03;;;;;;;37.58;23.73;;;;;;;7.36;53.25;99956.00;4982866;28;20023;-93
2023/12/29 09:00:30;;;;;;;35.42;22.23;;;;;;;7.43;53.08;99948.69;5017187;28;20042;-95
2023/12/29 09:02:56;;;;;;;30.27;20.65;;;;;;;7.61;52.69;99965.69;4982959;28;20399;-95
2023/12/29 09:05:22;;;;;;;43.90;23.98;;;;;;;7.69;52.36;99954.59;4982371;28;20022;-91
2023/12/29 09:07:47;;;;;;;43.20;22.83;;;;;;;7.93;52.48;99974.16;4966761;28;20077;-93
2023/12/29 09:10:14;;;;;;;45.72;23.63;;;;;;;7.96;52.52;99960.25;5018699;28;20028;-91
2023/12/29 09:12:40;;;;;;;41.20;23.38;;;;;;;7.99;52.41;99949.09;4990566;28;20060;-91
2023/12/29 09:16:46;;;;;;;40.20;23.55;;;;;;;8.03;52.69;99946.72;5003957;28;20026;-95
2023/12/29 09:32:42;;;;;;;31.20;20.25;;;;;;;8.54;51.58;99926.25;4975539;28;20053;-93
2023/12/29 09:35:08;;;;;;;29.63;19.45;;;;;;;8.67;51.12;99936.72;5047776;28;20051;-92
2023/12/29 09:37:44;;;;;;;38.50;20.80;;;;;;;8.85;51.24;99943.72;5042906;28;20484;-96
2023/12/29 09:40:15;;;;;;;39.85;20.58;;;;;;;8.98;51.45;99942.56;5011625;28;20037;-94
2023/12/29 09:42:43;;;;;;;370.33;166.82;;;;;;;8.98;51.23;99921.09;5009850;28;20039;-95
2023/12/29 09:45:11;;;;;;;34.40;23.30;;;;;;;9.12;51.14;99926.97;5011210;28;20043;-95
2023/12/29 09:47:41;;;;;;;32.67;20.48;;;;;;;9.10;51.16;99912.97;5007865;28;20021;-93
2023/12/29 09:50:15;;;;;;;39.55;23.60;;;;;;;9.21;51.54;99919.28;5018761;28;20051;-93
2023/12/29 09:52:41;;;;;;;38.22;22.13;;;;;;;9.26;51.18;99912.13;5045165;28;20024;-93
2023/12/29 09:55:10;;;;;;;38.03;23.13;;;;;;;9.40;51.28;99917.97;5022289;28;20064;-91
2023/12/29 09:57:45;;;;;;;37.28;22.13;;;;;;;9.50;50.73;99912.75;5025197;28;20029;-94
2023/12/29 11:01:59;;;;;;;;;;;;;;;;;;;;;
2023/12/29 11:04:34;;;;;;;37.30;22.30;;;;;;;12.35;47.49;99816.50;4911819;29;20054;-96
2023/12/29 11:07:00;;;;;;;16.85;9.90;;;;;;;12.48;46.88;99812.47;4887464;29;20036;-91
2023/12/29 11:09:50;;;;;;;11.00;6.25;;;;;;;12.63;46.99;99819.75;4892319;29;20055;-96
2023/12/29 11:12:19;;;;;;;10.23;4.70;;;;;;;12.66;46.98;99801.09;4888356;29;20036;-93
2023/12/29 11:14:51;;;;;;;16.08;5.30;;;;;;;12.78;46.86;99810.81;4886767;29;20064;-94
2023/12/29 11:17:17;;;;;;;12.70;7.93;;;;;;;12.83;46.93;99810.81;4891222;29;20032;-94
2023/12/29 11:19:53;;;;;;;6.93;4.68;;;;;;;12.91;46.48;99800.25;4888402;29;20048;-95
2023/12/29 11:22:41;;;;;;;6.97;4.63;;;;;;;13.15;45.90;99818.59;4897116;29;20480;-96
2023/12/29 11:25:23;;;;;;;8.25;4.13;;;;;;;13.16;45.73;99785.06;4890999;29;20036;-95
2023/12/29 11:27:52;;;;;;;9.10;4.10;;;;;;;13.30;45.77;99783.44;4850793;29;20082;-95
2023/12/29 11:30:21;;;;;;;8.57;4.78;;;;;;;13.53;45.85;99810.94;4876400;29;20025;-96
2023/12/29 11:33:05;;;;;;;7.47;3.50;;;;;;;13.34;45.02;99770.13;4872259;29;20092;-95
2023/12/29 11:35:51;;;;;;;5.40;3.33;;;;;;;13.46;44.79;99776.03;4872560;29;20032;-95
2023/12/29 11:38:33;;;;;;;6.57;3.28;;;;;;;13.54;45.12;99783.59;4903743;29;20040;-94
2023/12/29 11:41:43;;;;;;;7.57;3.55;;;;;;;13.73;44.49;99783.75;4870813;29;20052;-95
2023/12/29 11:44:13;;;;;;;4.43;2.97;;;;;;;13.66;44.35;99768.94;4882874;29;20036;-93
2023/12/29 11:46:45;;;;;;;4.78;3.28;;;;;;;13.58;44.55;99750.56;4869924;29;20503;-94
2023/12/29 11:49:11;;;;;;;9.25;3.75;;;;;;;13.74;44.86;99765.63;4883341;29;20107;-94
2023/12/29 11:51:49;;;;;;;8.38;3.42;;;;;;;13.67;44.24;99752.38;4884004;29;20044;-95
2023/12/29 11:54:26;;;;;;;6.70;4.07;;;;;;;13.89;44.48;99764.72;4905436;29;20032;-94
2023/12/29 11:56:58;;;;;;;7.07;3.20;;;;;;;13.79;44.13;99752.06;4891521;29;20394;-96
2023/12/29 11:59:24;;;;;;;10.50;3.63;;;;;;;14.02;43.93;99774.91;4907450;29;20039;-95
2023/12/29 12:01:54;;;;;;;6.05;3.40;;;;;;;13.85;44.16;99759.06;4906274;29;20566;-95
2023/12/29 12:04:53;;;;;;;7.40;3.10;;;;;;;14.07;43.59;99777.59;4905922;29;20024;-96
2023/12/29 12:07:56;;;;;;;5.97;3.70;;;;;;;14.13;43.55;99778.34;4926647;29;20036;-96
2023/12/29 12:10:30;;;;;;;12.63;4.00;;;;;;;14.15;43.66;99778.88;4909896;29;20080;-96
2023/12/29 12:12:57;;;;;;;5.68;3.25;;;;;;;14.05;43.45;99757.28;4920507;29;20027;-95
2023/12/29 12:15:32;;;;;;;6.55;3.30;;;;;;;14.15;43.41;99762.63;4900548;29;20024;-96
2023/12/29 12:18:16;;;;;;;7.85;3.70;;;;;;;14.13;43.51;99759.41;4913952;29;20025;-95
2023/12/29 12:20:50;;;;;;;6.05;3.20;;;;;;;13.97;43.70;99742.47;4908154;29;20028;-96
2023/12/29 12:23:21;;;;;;;7.97;3.60;;;;;;;14.07;43.89;99753.22;4901001;29;20052;-96
2023/12/29 12:25:46;;;;;;;10.15;3.15;;;;;;;14.01;43.51;99742.69;4892106;29;20029;-96
2023/12/29 12:28:15;;;;;;;7.38;3.08;;;;;;;14.03;43.42;99741.34;4859746;29;20027;-95
2023/12/29 12:30:40;;;;;;;5.32;3.03;;;;;;;14.17;43.43;99755.03;4889015;29;20036;-94
2023/12/29 12:33:09;;;;;;;7.35;3.60;;;;;;;14.14;43.70;99751.00;4878400;29;20478;-94
2023/12/29 12:35:34;;;;;;;4.80;3.33;;;;;;;14.18;43.53;99753.97;4888979;29;20024;-93
2023/12/29 12:38:30;;;;;;;4.93;3.15;;;;;;;14.13;43.74;99746.69;4901449;29;20034;-95
2023/12/29 12:40:55;;;;;;;8.32;4.70;;;;;;;14.22;43.56;99770.47;4875235;29;20574;-94
2023/12/29 12:43:21;;;;;;;6.47;3.58;;;;;;;14.14;43.69;99751.00;4896938;29;20028;-93
2023/12/29 12:45:54;;;;;;;9.27;4.80;;;;;;;14.11;43.75;99746.16;4886767;29;20028;-91
2023/12/29 12:48:32;;;;;;;7.35;3.92;;;;;;;14.20;43.60;99750.97;4885572;29;20091;-92
2023/12/29 12:51:00;;;;;;;7.43;4.40;;;;;;;14.20;43.46;99759.91;4887645;29;20414;-94